Time;durP1;ratioP1;P1;durP2;ratioP2;P2;SDS_P1;SDS_P2;PMS_P1;PMS_P2;Temp;Humidity;BMP_temperature;BMP_pressure;BME280_temperature;BME280_humidity;BME280_pressure;Samples;Min_cycle;Max_cycle;Signal;HPM_P1;HPM_P2
2022/06/08 00:00:31;;;;;;;2.80;1.25;;;;;;;25.27;42.52;100776.97;5115723;28;20370;-44
2022/06/08 00:03:03;;;;;;;6.07;1.45;;;;;;;25.17;42.58;100760.28;5115426;27;20028;-47
2022/06/08 00:05:32;;;;;;;5.05;1.58;;;;;;;25.14;42.54;100751.53;5097467;28;20023;-45
2022/06/08 00:08:00;;;;;;;2.42;1.00;;;;;;;25.25;42.90;100751.56;5115568;28;20104;-45
2022/06/08 00:10:29;;;;;;;5.35;1.40;;;;;;;25.18;42.57;100751.53;5115503;28;20102;-56
2022/06/08 00:12:57;;;;;;;5.57;2.13;;;;;;;25.25;42.89;100744.56;5114146;28;20141;-55
2022/06/08 00:15:26;;;;;;;4.28;1.23;;;;;;;25.23;42.50;100745.44;5114013;28;20051;-44
2022/06/08 00:17:54;;;;;;;4.45;1.30;;;;;;;25.13;43.02;100734.03;5113745;28;20020;-55
2022/06/08 00:20:23;;;;;;;3.00;1.20;;;;;;;25.22;42.71;100743.69;5115484;28;20440;-49
2022/06/08 00:22:53;;;;;;;4.22;1.60;;;;;;;25.20;42.76;100743.66;5113813;28;20030;-45
2022/06/08 00:25:22;;;;;;;4.32;1.30;;;;;;;25.22;42.91;100751.56;5115165;27;20023;-45
2022/06/08 00:27:50;;;;;;;4.93;1.60;;;;;;;25.17;42.80;100744.53;5113780;28;20089;-44
2022/06/08 00:30:19;;;;;;;4.43;1.60;;;;;;;25.18;42.62;100751.53;5115016;28;20032;-45
2022/06/08 00:32:48;;;;;;;4.68;1.40;;;;;;;25.11;42.97;100754.13;5116014;28;20031;-55
2022/06/08 00:35:16;;;;;;;4.60;1.60;;;;;;;25.16;42.83;100758.53;5114904;28;20111;-55
2022/06/08 00:37:44;;;;;;;4.80;1.42;;;;;;;25.09;42.60;100750.63;5115007;28;20042;-46
2022/06/08 00:40:15;;;;;;;5.68;1.63;;;;;;;25.17;42.62;100767.28;5114715;28;20036;-55
2022/06/08 00:42:43;;;;;;;5.53;1.95;;;;;;;25.15;42.67;100763.78;5115226;27;20106;-45
2022/06/08 00:45:15;;;;;;;2.67;1.38;;;;;;;25.15;42.58;100771.66;5113522;28;20030;-45
2022/06/08 00:47:48;;;;;;;4.88;1.70;;;;;;;25.17;42.73;100764.66;5113661;28;20027;-45
2022/06/08 00:50:21;;;;;;;7.25;1.70;;;;;;;25.15;42.75;100761.16;5115096;28;20472;-54
2022/06/08 00:52:51;;;;;;;3.67;1.50;;;;;;;25.19;42.46;100768.16;5113931;28;20038;-45
2022/06/08 00:55:21;;;;;;;5.20;1.40;;;;;;;25.18;42.53;100766.41;5113222;28;20035;-52
2022/06/08 00:57:53;;;;;;;4.72;1.50;;;;;;;25.11;42.25;100752.38;5113187;28;20027;-45
2022/06/08 01:00:25;;;;;;;3.58;1.63;;;;;;;25.21;42.35;100770.81;5113430;28;20366;-48
2022/06/08 01:02:54;;;;;;;6.50;2.17;;;;;;;25.20;42.67;100780.41;5112910;28;20389;-45
2022/06/08 01:05:28;;;;;;;6.03;1.48;;;;;;;25.20;42.17;100777.78;5114847;28;20080;-45
2022/06/08 01:07:59;;;;;;;4.22;1.70;;;;;;;25.24;42.01;100763.81;5114569;28;20028;-45
2022/06/08 01:10:31;;;;;;;5.75;2.03;;;;;;;25.28;42.10;100775.19;5114787;28;20050;-45
2022/06/08 01:13:04;;;;;;;3.25;1.27;;;;;;;25.27;42.29;100783.94;5113227;28;20032;-45
2022/06/08 01:15:35;;;;;;;3.13;1.52;;;;;;;25.20;42.15;100780.41;5113962;28;20044;-57
2022/06/08 01:18:04;;;;;;;5.53;1.67;;;;;;;25.24;42.45;100783.94;5113291;28;20518;-45
2022/06/08 01:20:33;;;;;;;5.15;1.60;;;;;;;25.22;42.23;100776.06;5114157;28;20159;-55
2022/06/08 01:23:02;;;;;;;4.35;1.63;;;;;;;25.12;42.00;100764.63;5112449;28;20088;-50
2022/06/08 01:25:44;;;;;;;3.45;1.65;;;;;;;25.29;41.95;100774.34;5112877;28;20028;-45
2022/06/08 01:28:24;;;;;;;5.68;1.92;;;;;;;25.26;41.81;100758.56;5096557;28;20028;-46
2022/06/08 01:30:58;;;;;;;4.90;1.73;;;;;;;25.28;41.97;100756.81;5112970;28;20042;-55
2022/06/08 01:33:37;;;;;;;5.38;1.55;;;;;;;25.29;41.68;100753.31;5096086;28;20403;-44
2022/06/08 01:36:09;;;;;;;4.22;1.60;;;;;;;25.20;41.83;100751.53;5114274;28;20028;-45
2022/06/08 01:39:05;;;;;;;6.07;1.80;;;;;;;25.17;42.24;100735.78;5113901;28;20429;-48
2022/06/08 01:41:42;;;;;;;5.38;1.80;;;;;;;25.17;42.21;100741.03;5109119;28;20067;-45
2022/06/08 01:45:28;;;;;;;4.32;1.55;;;;;;;25.17;42.29;100749.78;5112394;28;20029;-45
2022/06/08 01:47:45;;;;;;;5.40;1.20;;;;;;;25.27;41.91;100749.81;5112623;28;20085;-56
2022/06/08 01:50:26;;;;;;;6.03;1.25;;;;;;;25.18;41.82;100751.53;5113444;28;20110;-48
2022/06/08 01:53:07;;;;;;;3.05;1.27;;;;;;;25.15;42.07;100748.91;5113954;28;20032;-45
2022/06/08 01:55:39;;;;;;;5.45;1.75;;;;;;;25.15;42.15;100748.03;5115527;28;20084;-45
2022/06/08 01:58:28;;;;;;;5.10;1.63;;;;;;;25.13;42.42;100752.41;5117865;28;20107;-46
2022/06/08 02:01:15;;;;;;;4.45;1.85;;;;;;;25.07;42.47;100749.75;5116691;28;20026;-55
2022/06/08 02:04:04;;;;;;;3.17;1.42;;;;;;;25.10;42.09;100745.38;5117581;28;20111;-55
2022/06/08 02:06:45;;;;;;;3.97;1.58;;;;;;;25.10;42.12;100749.75;5118135;28;20055;-52
2022/06/08 02:09:20;;;;;;;3.42;1.73;;;;;;;25.01;42.09;100746.19;5099867;28;20023;-52
2022/06/08 02:11:58;;;;;;;4.60;1.55;;;;;;;25.09;41.93;100748.88;5117903;28;20028;-45
2022/06/08 02:14:51;;;;;;;4.95;1.35;;;;;;;25.12;42.03;100745.41;5116642;28;20028;-45
2022/06/08 02:17:42;;;;;;;3.72;1.42;;;;;;;25.17;41.90;100759.41;5113782;28;20092;-55
2022/06/08 02:20:33;;;;;;;3.80;1.08;;;;;;;25.13;41.85;100753.25;5117477;28;20084;-56
2022/06/08 02:23:10;;;;;;;4.07;1.63;;;;;;;25.13;41.70;100753.25;5113628;28;20031;-45
2022/06/08 02:25:45;;;;;;;5.15;1.20;;;;;;;25.13;41.95;100747.16;5116564;28;20122;-55
2022/06/08 02:28:22;;;;;;;3.97;1.30;;;;;;;25.03;41.94;100738.34;5116397;28;20022;-44
2022/06/08 02:30:54;;;;;;;3.53;1.42;;;;;;;25.06;42.10;100742.72;5116441;28;20341;-52
2022/06/08 02:36:21;;;;;;;4.75;1.55;;;;;;;25.09;41.84;100734.88;5109996;28;20028;-45
2022/06/08 02:38:56;;;;;;;2.92;1.35;;;;;;;25.03;41.72;100735.72;5115548;28;20020;-46
2022/06/08 02:41:27;;;;;;;3.45;1.25;;;;;;;25.07;42.18;100744.50;5117623;28;20024;-55
2022/06/08 02:44:01;;;;;;;4.90;1.17;;;;;;;25.04;41.82;100724.38;5117312;28;20028;-55
2022/06/08 02:46:58;;;;;;;2.22;1.20;;;;;;;25.06;42.21;100730.50;5115502;28;20031;-54
2022/06/08 02:49:26;;;;;;;4.43;1.35;;;;;;;25.05;42.04;100722.59;5115432;28;20110;-48
2022/06/08 02:52:00;;;;;;;6.00;1.55;;;;;;;25.03;41.80;100714.72;5116678;28;20023;-47
2022/06/08 02:54:28;;;;;;;4.72;1.60;;;;;;;25.03;41.98;100725.22;5115463;28;20078;-55
2022/06/08 02:57:07;;;;;;;5.90;1.60;;;;;;;24.96;42.35;100726.94;5116404;28;20094;-48
2022/06/08 03:00:02;;;;;;;3.30;1.20;;;;;;;25.00;42.04;100712.94;5115160;28;20479;-55
2022/06/08 03:02:32;;;;;;;5.15;0.90;;;;;;;25.04;42.01;100727.00;5112681;28;20472;-55
2022/06/08 03:05:03;;;;;;;4.72;1.52;;;;;;;25.05;41.72;100717.34;5116565;27;20080;-46
2022/06/08 03:07:35;;;;;;;4.25;1.35;;;;;;;25.00;41.81;100702.47;5115236;28;20130;-45
2022/06/08 03:10:08;;;;;;;4.35;1.45;;;;;;;24.97;41.82;100702.47;5115602;28;20103;-47
2022/06/08 03:12:40;;;;;;;4.03;1.70;;;;;;;24.96;42.09;100700.72;5116382;28;20062;-49
2022/06/08 03:15:10;;;;;;;4.20;1.15;;;;;;;24.98;41.98;100696.34;5115734;27;20378;-55
2022/06/08 03:17:43;;;;;;;4.07;1.10;;;;;;;24.89;42.35;100685.78;5116002;28;20067;-49
2022/06/08 03:20:13;;;;;;;2.70;1.20;;;;;;;24.93;42.07;100698.06;5116249;28;20027;-55
2022/06/08 03:22:41;;;;;;;4.22;1.20;;;;;;;24.93;42.24;100705.94;5116306;28;20027;-55
2022/06/08 03:25:10;;;;;;;4.95;1.13;;;;;;;24.90;41.98;100697.19;5116331;28;20362;-55
2022/06/08 03:27:39;;;;;;;3.50;1.25;;;;;;;24.92;42.09;100701.56;5116450;28;20034;-55
2022/06/08 03:30:08;;;;;;;4.38;1.80;;;;;;;24.91;41.77;100705.06;5116056;28;20028;-47
2022/06/08 03:32:37;;;;;;;2.78;1.27;;;;;;;24.86;41.73;100694.53;5116244;27;20031;-46
2022/06/08 03:35:05;;;;;;;2.38;1.10;;;;;;;24.93;41.99;100710.28;5116823;28;20457;-46
2022/06/08 03:37:36;;;;;;;4.13;1.63;;;;;;;24.93;42.19;100712.91;5115947;28;20027;-55
2022/06/08 03:40:06;;;;;;;4.28;1.48;;;;;;;24.92;42.22;100721.66;5116280;28;20380;-52
2022/06/08 03:42:34;;;;;;;6.65;1.40;;;;;;;24.91;41.82;100741.78;5115568;28;20028;-49
2022/06/08 03:45:03;;;;;;;10.70;2.08;;;;;;;24.84;41.95;100737.34;5115571;28;20427;-50
2022/06/08 03:47:37;;;;;;;3.15;1.10;;;;;;;24.85;41.89;100742.63;5114556;28;20023;-46
2022/06/08 03:50:09;;;;;;;3.23;1.20;;;;;;;24.82;42.10;100739.97;5114832;28;20107;-55
2022/06/08 03:52:39;;;;;;;4.85;1.23;;;;;;;24.86;42.05;100748.75;5114624;28;20271;-55
2022/06/08 03:55:09;;;;;;;5.70;1.63;;;;;;;24.84;42.06;100732.09;5115744;28;20047;-55
2022/06/08 03:57:38;;;;;;;3.78;1.20;;;;;;;24.88;42.20;100732.16;5115814;27;20028;-47
2022/06/08 04:00:08;;;;;;;8.68;1.45;;;;;;;24.87;42.13;100732.13;5114255;28;20027;-50
2022/06/08 04:02:36;;;;;;;4.82;1.30;;;;;;;24.86;42.21;100725.13;5115482;28;20567;-49
2022/06/08 04:05:05;;;;;;;5.25;1.33;;;;;;;24.84;42.03;100713.75;5115501;27;20034;-49
2022/06/08 04:07:33;;;;;;;5.88;2.03;;;;;;;24.85;41.97;100726.88;5115636;28;20023;-55
2022/06/08 04:10:02;;;;;;;7.22;1.20;;;;;;;24.79;42.04;100718.97;5115314;28;20032;-53
2022/06/08 04:12:30;;;;;;;4.00;1.33;;;;;;;24.82;41.96;100731.25;5115073;28;20034;-45
2022/06/08 04:14:59;;;;;;;4.95;1.40;;;;;;;24.69;42.15;100706.66;5115027;28;20101;-55
2022/06/08 04:17:26;;;;;;;4.80;1.55;;;;;;;24.83;41.92;100735.59;5114803;28;20020;-48
2022/06/08 04:19:55;;;;;;;4.60;1.33;;;;;;;24.85;41.91;100732.13;5115376;28;20031;-49
2022/06/08 04:22:30;;;;;;;10.07;1.90;;;;;;;24.85;41.96;100732.13;5115373;28;20168;-47
2022/06/08 04:24:59;;;;;;;8.77;2.25;;;;;;;24.83;41.90;100735.59;5115259;28;20093;-55
2022/06/08 04:27:28;;;;;;;7.13;1.75;;;;;;;24.84;42.17;100734.72;5114014;28;20031;-55
2022/06/08 04:29:57;;;;;;;6.20;1.40;;;;;;;24.80;42.19;100725.97;5113345;28;20110;-47
2022/06/08 04:32:25;;;;;;;5.97;1.48;;;;;;;24.83;42.09;100738.22;5115009;28;20046;-45
2022/06/08 04:34:54;;;;;;;6.97;1.50;;;;;;;24.83;41.95;100738.22;5114572;28;20430;-55
2022/06/08 04:37:22;;;;;;;8.80;2.03;;;;;;;24.82;42.20;100745.22;5114994;28;20052;-55
2022/06/08 04:39:51;;;;;;;10.10;2.05;;;;;;;24.78;41.90;100740.81;5114713;28;20030;-49
2022/06/08 04:42:19;;;;;;;7.85;2.10;;;;;;;24.81;42.23;100746.09;5114659;28;20043;-49
2022/06/08 04:44:48;;;;;;;5.45;1.45;;;;;;;24.67;42.23;100719.75;5114739;28;20054;-47
2022/06/08 04:47:16;;;;;;;3.40;1.35;;;;;;;24.78;42.30;100746.06;5113533;28;20481;-48
2022/06/08 04:49:45;;;;;;;8.35;1.90;;;;;;;24.77;42.35;100744.31;5114877;28;20102;-47
2022/06/08 04:52:14;;;;;;;6.82;1.95;;;;;;;24.74;41.86;100731.19;5114840;27;20059;-46
2022/06/08 04:54:42;;;;;;;7.55;1.83;;;;;;;24.75;42.55;100740.81;5114701;28;20556;-55
2022/06/08 04:57:11;;;;;;;6.93;2.15;;;;;;;24.76;42.42;100741.69;5114478;28;20472;-55
2022/06/08 04:59:40;;;;;;;5.82;2.00;;;;;;;24.76;42.28;100745.19;5114856;28;20034;-49
2022/06/08 05:02:09;;;;;;;8.07;1.80;;;;;;;24.83;42.18;100738.22;5114584;28;20476;-50
2022/06/08 05:04:38;;;;;;;6.43;2.30;;;;;;;24.87;42.07;100734.75;5112776;28;20058;-47
2022/06/08 05:07:07;;;;;;;7.50;1.88;;;;;;;24.89;41.67;100743.50;5112792;28;20030;-49
2022/06/08 05:09:36;;;;;;;7.30;1.83;;;;;;;24.76;42.09;100720.72;5096328;28;20484;-54
2022/06/08 05:12:05;;;;;;;8.13;2.03;;;;;;;24.86;41.80;100741.75;5114405;28;20051;-49
2022/06/08 05:14:33;;;;;;;8.32;2.15;;;;;;;24.80;42.18;100739.09;5113948;28;20020;-54
2022/06/08 05:17:02;;;;;;;10.82;2.17;;;;;;;24.85;42.03;100752.22;5114372;28;20032;-47
2022/06/08 05:19:30;;;;;;;6.65;2.00;;;;;;;24.86;41.68;100762.75;5112730;28;20019;-51
2022/06/08 05:21:59;;;;;;;7.13;2.50;;;;;;;24.83;41.86;100756.59;5113814;28;20438;-47
2022/06/08 05:24:27;;;;;;;7.72;1.98;;;;;;;24.88;41.60;100747.00;5113939;28;20476;-48
2022/06/08 05:26:56;;;;;;;6.30;1.67;;;;;;;24.96;41.48;100760.16;5114230;28;20076;-45
2022/06/08 05:29:24;;;;;;;7.85;2.30;;;;;;;24.96;41.65;100754.91;5113477;28;20504;-49
2022/06/08 05:31:53;;;;;;;7.40;2.22;;;;;;;24.97;41.74;100754.06;5114031;28;20038;-45
2022/06/08 05:34:22;;;;;;;10.48;2.15;;;;;;;24.95;41.57;100758.41;5113825;28;20430;-55
2022/06/08 05:36:50;;;;;;;6.40;1.70;;;;;;;24.92;41.88;100756.66;5113909;28;20046;-45
2022/06/08 05:39:19;;;;;;;7.40;1.95;;;;;;;24.91;41.88;100756.63;5112530;28;20032;-46
2022/06/08 05:41:47;;;;;;;7.80;2.08;;;;;;;24.93;41.62;100757.53;5112616;28;20051;-53
2022/06/08 05:44:19;;;;;;;6.80;2.10;;;;;;;24.94;41.84;100754.94;5113589;28;20488;-55
2022/06/08 05:46:48;;;;;;;6.80;1.75;;;;;;;24.96;41.70;100758.44;5114025;28;20056;-53
2022/06/08 05:49:17;;;;;;;6.10;2.00;;;;;;;25.02;41.38;100753.19;5113909;28;20106;-47
2022/06/08 05:51:46;;;;;;;11.75;2.15;;;;;;;25.02;41.85;100755.81;5113964;28;20151;-51
2022/06/08 05:54:14;;;;;;;6.68;1.88;;;;;;;25.04;41.55;100763.72;5113677;28;20404;-55
2022/06/08 05:56:43;;;;;;;10.43;2.30;;;;;;;25.03;41.46;100760.22;5113851;28;20019;-48
2022/06/08 05:59:11;;;;;;;6.35;1.92;;;;;;;25.07;41.39;100768.97;5113584;28;20043;-45
2022/06/08 06:01:40;;;;;;;9.75;2.35;;;;;;;25.02;41.49;100762.84;5113925;28;20019;-49
2022/06/08 06:04:09;;;;;;;7.38;2.15;;;;;;;25.14;41.28;100781.28;5112466;28;20031;-49
2022/06/08 06:06:38;;;;;;;6.25;1.80;;;;;;;25.19;41.12;100783.91;5113717;28;20024;-47
2022/06/08 06:09:08;;;;;;;6.80;1.70;;;;;;;25.15;41.41;100775.16;5113776;28;20039;-53
2022/06/08 06:11:37;;;;;;;8.98;1.58;;;;;;;25.21;41.28;100770.81;5113270;28;20055;-55
2022/06/08 06:14:06;;;;;;;5.80;1.58;;;;;;;25.30;41.09;100776.97;5112363;28;20465;-54
2022/06/08 06:16:34;;;;;;;4.70;1.65;;;;;;;25.31;40.95;100786.63;5113584;28;20043;-51
2022/06/08 06:19:03;;;;;;;10.65;2.33;;;;;;;25.30;41.38;100792.75;5113426;28;20023;-49
2022/06/08 06:21:32;;;;;;;5.05;1.92;;;;;;;25.32;41.04;100790.09;5112529;28;20080;-48
2022/06/08 06:24:02;;;;;;;8.55;1.75;;;;;;;25.25;41.37;100789.22;5113414;28;20172;-48
2022/06/08 06:26:30;;;;;;;6.70;1.67;;;;;;;25.35;41.08;100800.63;5113895;28;20027;-48
2022/06/08 06:28:59;;;;;;;6.35;1.58;;;;;;;25.38;40.92;100799.75;5113420;28;20031;-49
2022/06/08 06:31:41;;;;;;;7.75;2.17;;;;;;;25.37;41.23;100803.25;5113884;28;20111;-54
2022/06/08 06:34:12;;;;;;;9.00;2.40;;;;;;;25.32;41.34;100803.22;5112360;28;20032;-48
2022/06/08 06:36:41;;;;;;;6.80;2.33;;;;;;;25.38;40.95;100807.63;5113469;28;20058;-54
2022/06/08 06:39:10;;;;;;;7.38;2.00;;;;;;;25.37;41.22;100805.88;5113363;28;20024;-47
2022/06/08 06:41:39;;;;;;;9.25;2.00;;;;;;;25.33;41.33;100807.63;5115454;28;20019;-52
2022/06/08 06:44:08;;;;;;;6.68;2.13;;;;;;;25.33;41.25;100808.47;5117093;28;20028;-54
2022/06/08 06:46:36;;;;;;;12.80;2.42;;;;;;;25.34;40.97;100810.25;5117550;28;20491;-55
2022/06/08 06:49:05;;;;;;;7.28;2.13;;;;;;;25.34;41.10;100807.63;5117108;28;20112;-55
2022/06/08 06:51:34;;;;;;;9.75;2.88;;;;;;;25.37;41.11;100811.13;5117039;28;20472;-49
2022/06/08 06:54:04;;;;;;;7.10;2.25;;;;;;;25.42;41.04;100820.81;5117010;28;20019;-46
2022/06/08 06:56:32;;;;;;;14.82;3.00;;;;;;;25.45;41.09;100822.59;5116990;28;20053;-46
2022/06/08 06:59:01;;;;;;;3.90;1.25;;;;;;;25.40;41.21;100825.13;5116730;28;20058;-49
2022/06/08 07:01:30;;;;;;;12.10;2.78;;;;;;;25.40;41.18;100816.41;5117132;28;20049;-47
2022/06/08 07:03:59;;;;;;;7.57;2.00;;;;;;;25.45;41.32;100820.81;5116678;27;20481;-46
2022/06/08 07:06:29;;;;;;;7.72;2.25;;;;;;;25.50;41.22;100820.84;5116935;28;20346;-47
2022/06/08 07:09:01;;;;;;;6.25;2.20;;;;;;;25.58;41.05;100834.00;5116594;28;20026;-46
2022/06/08 07:11:35;;;;;;;5.93;1.85;;;;;;;25.62;41.17;100826.16;5116901;28;20031;-52
2022/06/08 07:14:05;;;;;;;8.38;1.98;;;;;;;25.65;41.18;100843.69;5116854;27;20022;-50
2022/06/08 07:16:34;;;;;;;11.65;2.53;;;;;;;25.68;41.25;100835.81;5114984;28;20542;-47
2022/06/08 07:19:04;;;;;;;10.95;2.00;;;;;;;25.73;41.07;100838.44;5116602;28;20028;-48
2022/06/08 07:21:33;;;;;;;7.45;2.30;;;;;;;25.73;41.15;100836.69;5115172;28;20027;-49
2022/06/08 07:24:02;;;;;;;8.50;2.00;;;;;;;25.78;41.02;100839.34;5116165;28;20038;-49
2022/06/08 07:26:30;;;;;;;7.07;1.90;;;;;;;25.86;41.25;100840.25;5116228;28;20024;-55
2022/06/08 07:28:59;;;;;;;10.30;2.97;;;;;;;25.87;41.05;100857.78;5116266;28;20428;-52
2022/06/08 07:31:27;;;;;;;5.80;1.67;;;;;;;25.94;40.95;100854.31;5116144;27;20110;-48
2022/06/08 07:33:56;;;;;;;9.35;2.35;;;;;;;25.94;41.21;100862.19;5116134;28;20035;-46
2022/06/08 07:36:24;;;;;;;10.55;2.08;;;;;;;26.00;40.83;100863.06;5114733;28;20023;-50
2022/06/08 07:38:53;;;;;;;10.45;2.05;;;;;;;26.05;40.77;100863.97;5115794;28;20098;-55
2022/06/08 07:41:22;;;;;;;8.93;2.33;;;;;;;26.10;40.62;100867.47;5116174;28;20499;-53
2022/06/08 07:43:50;;;;;;;7.90;2.20;;;;;;;26.11;40.75;100869.28;5114365;28;20032;-47
2022/06/08 07:46:19;;;;;;;10.05;2.22;;;;;;;26.07;40.66;100849.06;5114603;28;20019;-53
2022/06/08 07:51:35;;;;;;;6.93;2.00;;;;;;;26.19;40.53;100875.41;5115619;28;20115;-55
2022/06/08 07:54:03;;;;;;;12.23;2.40;;;;;;;26.29;40.42;100875.44;5114778;28;20019;-45
2022/06/08 07:56:32;;;;;;;6.95;2.22;;;;;;;26.25;40.46;100871.91;5114637;28;20020;-45
2022/06/08 07:59:02;;;;;;;6.78;2.20;;;;;;;26.30;40.55;100883.31;5114533;28;20022;-46
2022/06/08 08:01:30;;;;;;;4.88;1.45;;;;;;;26.32;40.44;100873.69;5115866;28;20494;-45
2022/06/08 08:04:00;;;;;;;5.88;1.90;;;;;;;26.42;40.42;100882.47;5115512;28;20110;-45
2022/06/08 08:06:28;;;;;;;6.53;2.30;;;;;;;26.43;40.11;100888.59;5114353;28;20024;-46
2022/06/08 08:08:57;;;;;;;7.35;2.00;;;;;;;26.44;40.40;100888.63;5114637;28;20028;-46
2022/06/08 08:11:26;;;;;;;8.80;1.75;;;;;;;26.49;40.11;100886.00;5097868;28;20385;-48
2022/06/08 08:13:55;;;;;;;7.40;2.00;;;;;;;26.41;40.22;100880.72;5114046;28;20030;-45
2022/06/08 08:16:24;;;;;;;6.72;1.73;;;;;;;26.51;40.43;100886.88;5115146;28;20050;-55
2022/06/08 08:18:53;;;;;;;7.53;2.28;;;;;;;26.50;40.13;100890.38;5114852;28;20028;-47
2022/06/08 08:21:21;;;;;;;8.20;1.75;;;;;;;26.42;40.27;100871.97;5115353;27;20034;-57
2022/06/08 08:23:50;;;;;;;6.47;2.50;;;;;;;26.53;40.06;100886.00;5115286;28;20035;-45
2022/06/08 08:26:18;;;;;;;7.90;2.58;;;;;;;26.63;40.12;100897.41;5115366;28;20030;-45
2022/06/08 08:28:47;;;;;;;5.55;1.58;;;;;;;26.62;39.82;100894.78;5114178;28;20135;-46
2022/06/08 08:31:15;;;;;;;6.30;2.00;;;;;;;26.57;40.05;100902.63;5097191;28;20111;-55
2022/06/08 08:33:42;;;;;;;8.20;2.35;;;;;;;26.62;39.78;100906.16;5097024;28;20050;-45
2022/06/08 08:36:11;;;;;;;8.38;2.50;;;;;;;26.61;39.72;100914.94;5114023;28;20020;-54
2022/06/08 08:38:40;;;;;;;7.07;1.95;;;;;;;26.49;39.86;100889.47;5096733;28;20082;-55
2022/06/08 08:44:03;;;;;;;11.43;2.97;;;;;;;26.59;39.88;100910.56;5110254;28;20035;-55
2022/06/08 08:46:59;;;;;;;8.50;2.30;;;;;;;26.59;39.68;100919.31;5113403;28;20427;-50
2022/06/08 08:49:30;;;;;;;7.63;2.22;;;;;;;26.64;39.74;100914.06;5114283;28;20053;-45
2022/06/08 08:52:05;;;;;;;15.05;2.58;;;;;;;26.63;39.61;100901.78;5115187;28;20106;-46
2022/06/08 08:54:38;;;;;;;8.00;2.33;;;;;;;26.65;39.61;100911.44;5096175;28;20492;-46
2022/06/08 08:57:20;;;;;;;10.93;2.55;;;;;;;26.71;39.78;100920.22;5113619;28;20028;-46
2022/06/08 08:59:49;;;;;;;7.55;2.13;;;;;;;26.71;39.52;100921.09;5113598;28;20035;-46
2022/06/08 09:05:15;;;;;;;5.78;1.85;;;;;;;26.71;39.58;100923.72;5106845;28;20036;-48
2022/06/08 09:07:44;;;;;;;8.32;1.95;;;;;;;26.64;39.38;100914.94;5114288;28;20172;-46
2022/06/08 09:10:18;;;;;;;9.25;3.08;;;;;;;26.75;39.32;100937.75;5112700;28;20425;-47
2022/06/08 09:12:47;;;;;;;10.55;2.60;;;;;;;26.72;39.41;100935.13;5112652;28;20023;-56
2022/06/08 09:15:19;;;;;;;7.90;2.05;;;;;;;26.71;39.64;100939.50;5112797;28;20050;-56
2022/06/08 09:17:56;;;;;;;8.75;2.47;;;;;;;26.71;39.35;100942.13;5095962;28;20031;-47
2022/06/08 09:20:31;;;;;;;9.18;1.73;;;;;;;26.77;39.23;100944.78;5114235;28;20024;-49
2022/06/08 09:23:20;;;;;;;6.90;2.17;;;;;;;26.75;39.36;100945.63;5095968;28;20099;-45
2022/06/08 09:26:03;;;;;;;8.20;2.35;;;;;;;26.77;39.50;100950.03;5112670;28;20465;-46
2022/06/08 09:28:33;;;;;;;8.73;1.98;;;;;;;26.76;39.44;100957.91;5113050;28;20098;-50
2022/06/08 09:31:02;;;;;;;7.45;2.35;;;;;;;26.77;39.45;100952.69;5112920;28;20031;-49
2022/06/08 09:33:36;;;;;;;10.45;2.55;;;;;;;26.81;39.35;100956.22;5114148;28;20084;-45
2022/06/08 09:36:09;;;;;;;7.78;1.98;;;;;;;26.79;39.20;100958.84;5114968;28;20020;-56
2022/06/08 09:38:41;;;;;;;14.13;2.78;;;;;;;26.82;39.31;100961.47;5113842;28;20545;-48
2022/06/08 09:41:16;;;;;;;7.68;2.38;;;;;;;26.79;39.42;100961.50;5113673;28;20035;-55
2022/06/08 09:43:49;;;;;;;8.38;1.98;;;;;;;26.79;39.23;100966.75;5112629;28;20059;-55
2022/06/08 09:52:54;;;;;;;9.00;2.03;;;;;;;26.88;39.43;100954.47;5113374;28;20427;-49
2022/06/08 09:55:34;;;;;;;8.57;2.13;;;;;;;26.84;39.44;100946.56;5075004;28;20070;-45
2022/06/08 09:58:19;;;;;;;6.15;2.00;;;;;;;26.82;39.29;100942.19;5091516;28;20031;-46
2022/06/08 10:01:19;;;;;;;5.63;2.05;;;;;;;26.87;39.16;100964.13;5058010;28;20115;-45
2022/06/08 10:03:59;;;;;;;7.78;2.05;;;;;;;26.84;39.28;100948.31;5084744;28;20028;-45
2022/06/08 10:06:51;;;;;;;7.15;1.80;;;;;;;26.88;39.30;100971.16;5074219;28;20024;-45
2022/06/08 10:09:47;;;;;;;10.93;2.22;;;;;;;26.91;39.02;100971.13;5087302;28;20032;-46
2022/06/08 10:12:57;;;;;;;7.78;2.08;;;;;;;26.96;38.97;100965.88;5091016;28;20024;-46
2022/06/08 10:15:46;;;;;;;11.30;2.47;;;;;;;26.94;38.98;100978.16;5068521;28;20134;-53
2022/06/08 10:18:20;;;;;;;7.88;2.15;;;;;;;26.94;39.01;100980.81;5061533;28;20028;-47
2022/06/08 10:20:52;;;;;;;9.65;2.20;;;;;;;26.90;39.34;100989.56;5078812;28;20044;-47
2022/06/08 10:23:31;;;;;;;6.93;1.80;;;;;;;26.93;39.22;100986.94;5094783;28;20036;-45
2022/06/08 10:26:03;;;;;;;6.32;1.65;;;;;;;27.02;39.17;100973.78;5091723;28;20560;-45
2022/06/08 10:28:35;;;;;;;8.18;2.30;;;;;;;27.03;39.08;100977.28;5116167;28;20042;-47
2022/06/08 10:31:13;;;;;;;9.73;2.65;;;;;;;26.99;39.01;100986.94;5117043;28;20023;-56
2022/06/08 10:33:59;;;;;;;20.17;4.18;;;;;;;26.42;37.54;100979.78;5117610;28;20035;-44
2022/06/08 10:36:31;;;;;;;18.38;3.90;;;;;;;26.13;38.70;100975.31;5116426;28;20511;-45
2022/06/08 10:39:02;;;;;;;16.77;3.55;;;;;;;25.76;38.73;100977.72;5117276;28;20039;-45
2022/06/08 10:44:28;;;;;;;24.45;4.43;;;;;;;24.76;39.31;100988.28;5116613;28;20093;-46
2022/06/08 10:46:58;;;;;;;17.13;3.47;;;;;;;24.62;39.06;101002.13;5099485;28;20050;-45
2022/06/08 10:49:34;;;;;;;20.17;3.80;;;;;;;24.52;39.39;101009.00;5116204;28;20104;-45
2022/06/08 10:52:21;;;;;;;16.00;4.50;;;;;;;24.37;40.24;101007.06;5115806;28;20023;-44
2022/06/08 10:54:57;;;;;;;18.77;4.18;;;;;;;24.36;40.15;101014.94;5099140;28;20061;-52
2022/06/08 10:57:49;;;;;;;16.92;3.60;;;;;;;24.09;40.51;101011.97;5115717;28;20031;-46
2022/06/08 11:00:20;;;;;;;13.50;3.28;;;;;;;24.04;40.16;101003.16;5113869;28;20470;-46
2022/06/08 11:02:59;;;;;;;17.85;3.78;;;;;;;23.89;40.31;101016.91;5115739;28;20077;-47
2022/06/08 11:05:36;;;;;;;18.90;4.85;;;;;;;23.80;40.53;101022.00;5117029;28;20026;-45
2022/06/08 11:08:08;;;;;;;18.88;3.53;;;;;;;23.81;40.84;101024.66;5115624;28;20108;-54
2022/06/08 11:10:44;;;;;;;16.52;3.28;;;;;;;23.79;40.73;101018.53;5116923;28;20038;-54
2022/06/08 11:13:24;;;;;;;14.93;3.67;;;;;;;23.74;40.26;101027.19;5115242;28;20035;-44
2022/06/08 11:16:17;;;;;;;14.02;4.03;;;;;;;23.69;40.58;101032.31;5116434;28;20044;-44
2022/06/08 11:19:06;;;;;;;16.52;3.83;;;;;;;23.56;41.56;101023.41;5116610;28;20024;-53
2022/06/08 11:21:55;;;;;;;24.75;4.32;;;;;;;23.56;41.16;101022.53;5112644;28;20047;-44
2022/06/08 11:24:29;;;;;;;25.85;4.03;;;;;;;23.47;41.62;101003.19;5116169;28;20096;-45
2022/06/08 11:27:26;;;;;;;19.00;4.35;;;;;;;23.59;40.86;101033.91;5114377;28;20051;-45
2022/06/08 11:29:58;;;;;;;15.23;3.17;;;;;;;23.54;40.80;101032.09;5115323;28;20511;-44
2022/06/08 11:32:36;;;;;;;20.75;4.32;;;;;;;23.56;40.94;101025.13;5116139;28;20019;-44
2022/06/08 11:35:20;;;;;;;17.38;3.95;;;;;;;23.69;41.11;101034.06;5114774;28;20027;-45
2022/06/08 11:38:15;;;;;;;26.25;4.72;;;;;;;23.59;41.12;101030.44;5114633;28;20477;-46
2022/06/08 11:40:44;;;;;;;14.95;3.55;;;;;;;23.42;41.45;101028.41;5116431;28;20067;-49
2022/06/08 11:43:13;;;;;;;20.90;4.10;;;;;;;23.51;41.59;101041.66;5115176;28;20465;-45
2022/06/08 11:45:45;;;;;;;15.55;3.22;;;;;;;23.66;41.15;101035.78;5116393;27;20020;-53
2022/06/08 11:48:17;;;;;;;16.13;3.45;;;;;;;23.64;41.85;101034.00;5116563;28;20480;-55
2022/06/08 11:50:49;;;;;;;18.27;4.05;;;;;;;23.83;41.26;101043.88;5114712;28;20164;-54
2022/06/08 11:53:21;;;;;;;17.67;4.05;;;;;;;23.69;41.52;101061.13;5115885;28;20510;-51
2022/06/08 11:56:18;;;;;;;14.98;3.92;;;;;;;23.65;41.66;101049.72;5114768;28;20039;-44
2022/06/08 11:58:51;;;;;;;16.95;4.68;;;;;;;23.79;41.88;101063.06;5111536;28;20063;-51
2022/06/08 12:01:25;;;;;;;15.77;4.15;;;;;;;23.78;41.98;101063.00;5097597;28;20027;-44
2022/06/08 12:04:01;;;;;;;24.30;4.40;;;;;;;23.85;42.14;101051.78;5115598;28;20354;-45
2022/06/08 12:06:34;;;;;;;22.63;4.38;;;;;;;24.06;41.60;101064.34;5097497;28;20069;-44
2022/06/08 12:09:26;;;;;;;15.07;3.83;;;;;;;24.04;42.23;101071.28;5114488;28;20023;-54
2022/06/08 12:12:10;;;;;;;16.65;4.10;;;;;;;23.97;42.48;101062.47;5114177;28;20023;-44